createdAt,value
2022-08-30T00:02:25.218Z,99618.25
2022-08-30T00:04:54.592Z,99615.41
2022-08-30T00:07:23.470Z,99613.28
2022-08-30T00:09:51.355Z,99610.78
2022-08-30T00:12:21.375Z,99608.00
2022-08-30T00:14:49.364Z,99603.03
2022-08-30T00:17:17.200Z,99614.78
2022-08-30T00:19:45.800Z,99607.19
2022-08-30T00:22:14.333Z,99609.44
2022-08-30T00:24:42.224Z,99621.75
2022-08-30T00:27:10.391Z,99600.34
2022-08-30T00:29:38.260Z,99609.97
2022-08-30T00:32:06.225Z,99600.16
2022-08-30T00:34:34.923Z,99596.72
2022-08-30T00:37:03.097Z,99595.38
2022-08-30T00:39:30.889Z,99582.75
2022-08-30T00:41:59.032Z,99585.41
2022-08-30T00:44:26.977Z,99582.06
2022-08-30T00:46:54.734Z,99583.47
2022-08-30T00:49:23.221Z,99578.09
2022-08-30T00:51:51.310Z,99560.34
2022-08-30T00:54:22.324Z,99574.59
2022-08-30T00:56:55.859Z,99565.94
2022-08-30T00:59:24.824Z,99568.78
2022-08-30T01:01:52.929Z,99579.31
2022-08-30T01:04:24.634Z,99584.50
2022-08-30T01:06:53.414Z,99586.34
2022-08-30T01:09:22.126Z,99580.03
2022-08-30T01:11:50.161Z,99573.75
2022-08-30T01:14:18.386Z,99570.06
2022-08-30T01:16:46.656Z,99581.50
2022-08-30T01:19:36.047Z,99570.59
2022-08-30T01:22:17.822Z,99563.28
2022-08-30T01:24:48.014Z,99562.28
2022-08-30T01:27:18.394Z,99562.94
2022-08-30T01:29:46.841Z,99567.41
2022-08-30T01:32:21.309Z,99556.28
2022-08-30T01:34:50.692Z,99548.66
2022-08-30T01:37:24.860Z,99548.16
2022-08-30T01:39:53.271Z,99540.25
2022-08-30T01:42:21.554Z,99542.69
2022-08-30T01:44:49.886Z,99547.38
2022-08-30T01:47:19.681Z,99549.91
2022-08-30T01:49:47.985Z,99548.56
2022-08-30T01:52:17.780Z,99547.41
2022-08-30T01:54:47.191Z,99542.75
2022-08-30T01:57:18.602Z,99539.09
2022-08-30T01:59:48.126Z,99528.97
2022-08-30T02:02:21.312Z,99528.75
2022-08-30T02:04:52.052Z,99537.16
2022-08-30T02:07:23.835Z,99527.56
2022-08-30T02:09:53.608Z,99533.88
2022-08-30T02:12:21.525Z,99534.78
2022-08-30T02:14:49.479Z,99528.91
2022-08-30T02:17:19.722Z,99522.44
2022-08-30T02:19:50.288Z,99529.37
2022-08-30T02:22:18.975Z,99533.03
2022-08-30T02:24:46.972Z,99538.78
2022-08-30T02:27:14.946Z,99534.47
2022-08-30T02:29:43.254Z,99531.00
2022-08-30T02:32:11.065Z,99521.34
2022-08-30T02:34:38.870Z,99524.66
2022-08-30T02:37:07.150Z,99535.44
2022-08-30T02:39:35.065Z,99529.69
2022-08-30T02:42:03.596Z,99536.50
2022-08-30T02:44:31.807Z,99546.19
2022-08-30T02:46:59.626Z,99542.38
2022-08-30T02:49:33.522Z,99548.69
2022-08-30T02:52:05.218Z,99551.22
2022-08-30T02:54:33.586Z,99547.41
2022-08-30T02:57:05.330Z,99552.88
2022-08-30T02:59:34.280Z,99540.78
2022-08-30T03:02:02.084Z,99542.41
2022-08-30T03:04:30.249Z,99550.03
2022-08-30T03:06:59.324Z,99545.72
2022-08-30T03:09:27.222Z,99544.37
2022-08-30T03:11:55.017Z,99535.75
2022-08-30T03:14:23.395Z,99542.88
2022-08-30T03:16:51.805Z,99550.56
2022-08-30T03:19:20.035Z,99551.37
2022-08-30T03:21:48.395Z,99544.09
2022-08-30T03:24:16.179Z,99547.91
2022-08-30T03:26:46.436Z,99542.75
2022-08-30T03:29:15.143Z,99544.25
2022-08-30T03:31:52.556Z,99530.25
2022-08-30T03:34:22.144Z,99536.91
2022-08-30T03:36:53.017Z,99548.34
2022-08-30T03:39:22.984Z,99544.59
2022-08-30T03:41:52.050Z,99547.19
2022-08-30T03:44:20.814Z,99546.25
2022-08-30T03:46:50.370Z,99549.91
2022-08-30T03:49:19.716Z,99556.09
2022-08-30T03:51:48.673Z,99549.97
2022-08-30T03:54:17.459Z,99559.19
2022-08-30T03:56:45.266Z,99554.00
2022-08-30T03:59:13.215Z,99547.16
2022-08-30T04:01:42.380Z,99551.25
2022-08-30T04:04:10.611Z,99541.63
2022-08-30T04:06:38.576Z,99548.44
2022-08-30T04:09:06.815Z,99554.72
2022-08-30T04:11:35.025Z,99560.22
2022-08-30T04:14:02.730Z,99559.59
2022-08-30T04:16:30.554Z,99562.00
2022-08-30T04:18:58.735Z,99563.91
2022-08-30T04:21:27.320Z,99550.78
2022-08-30T04:23:55.139Z,99552.00
2022-08-30T04:26:23.485Z,99553.09
2022-08-30T04:28:57.863Z,99557.41
2022-08-30T04:31:27.706Z,99564.19
2022-08-30T04:36:42.142Z,99556.84
2022-08-30T04:39:17.777Z,99552.22
2022-08-30T04:41:48.787Z,99550.59
2022-08-30T04:44:19.486Z,99553.28
2022-08-30T04:46:48.528Z,99550.38
2022-08-30T04:49:16.328Z,99556.06
2022-08-30T04:51:44.143Z,99559.28
2022-08-30T04:54:12.628Z,99549.44
2022-08-30T04:56:40.641Z,99546.31
2022-08-30T04:59:08.463Z,99555.66
2022-08-30T05:01:44.694Z,99545.13
2022-08-30T05:04:14.039Z,99557.25
2022-08-30T05:06:42.531Z,99554.62
2022-08-30T05:09:10.454Z,99558.28
2022-08-30T05:11:39.187Z,99551.53
2022-08-30T05:14:07.534Z,99556.12
2022-08-30T05:16:35.894Z,99548.44
2022-08-30T05:19:04.044Z,99547.00
2022-08-30T05:21:32.274Z,99544.00
2022-08-30T05:24:01.331Z,99545.72
2022-08-30T05:26:32.721Z,99546.94
2022-08-30T05:29:01.462Z,99544.84
2022-08-30T05:31:32.764Z,99541.97
2022-08-30T05:34:01.629Z,99549.78
2022-08-30T05:36:32.556Z,99555.16
2022-08-30T05:39:01.338Z,99545.06
2022-08-30T05:41:29.579Z,99539.94
2022-08-30T05:46:46.588Z,99536.87
2022-08-30T05:49:14.602Z,99538.72
2022-08-30T05:51:43.215Z,99553.06
2022-08-30T05:54:13.644Z,99543.84
2022-08-30T05:56:43.040Z,99548.47
2022-08-30T05:59:12.868Z,99552.22
2022-08-30T06:01:46.920Z,99555.22
2022-08-30T06:04:15.778Z,99552.97
2022-08-30T06:06:44.808Z,99552.09
2022-08-30T06:09:14.174Z,99548.34
2022-08-30T06:11:43.233Z,99559.50
2022-08-30T06:14:11.717Z,99555.59
2022-08-30T06:16:41.237Z,99557.59
2022-08-30T06:19:11.288Z,99552.97
2022-08-30T06:21:40.789Z,99549.97
2022-08-30T06:24:11.496Z,99550.84
2022-08-30T06:26:45.443Z,99545.81
2022-08-30T06:29:16.275Z,99554.78
2022-08-30T06:31:44.812Z,99562.09
2022-08-30T06:34:13.032Z,99561.34
2022-08-30T06:36:40.891Z,99557.63
2022-08-30T06:39:11.729Z,99546.56
2022-08-30T06:41:41.567Z,99558.31
2022-08-30T06:44:12.422Z,99553.56
2022-08-30T06:46:42.767Z,99555.31
2022-08-30T06:49:11.099Z,99546.47
2022-08-30T06:51:40.238Z,99556.12
2022-08-30T06:54:11.958Z,99558.47
2022-08-30T06:56:55.209Z,99547.72
2022-08-30T06:59:27.306Z,99543.19
2022-08-30T07:01:56.763Z,99544.50
2022-08-30T07:04:25.590Z,99547.81
2022-08-30T07:06:53.591Z,99545.59
2022-08-30T07:09:23.044Z,99555.50
2022-08-30T07:11:52.268Z,99542.41
2022-08-30T07:14:21.138Z,99543.66
2022-08-30T07:16:51.170Z,99540.16
2022-08-30T07:19:21.522Z,99546.28
2022-08-30T07:21:52.277Z,99549.00
2022-08-30T07:24:21.124Z,99538.94
2022-08-30T07:26:52.393Z,99546.81
2022-08-30T07:29:21.604Z,99548.81
2022-08-30T07:31:53.100Z,99542.59
2022-08-30T07:34:22.404Z,99547.84
2022-08-30T07:36:52.680Z,99546.28
2022-08-30T07:39:20.564Z,99537.53
2022-08-30T07:41:49.119Z,99553.72
2022-08-30T07:44:18.069Z,99541.28
2022-08-30T07:46:46.204Z,99542.19
2022-08-30T07:49:14.246Z,99543.22
2022-08-30T07:51:42.867Z,99543.13
2022-08-30T07:54:10.781Z,99548.12
2022-08-30T07:56:38.738Z,99536.75
2022-08-30T07:59:06.997Z,99543.16
2022-08-30T08:01:34.998Z,99537.97
2022-08-30T08:04:03.623Z,99535.72
2022-08-30T08:06:34.927Z,99543.06
2022-08-30T08:09:03.644Z,99534.34
2022-08-30T08:11:33.928Z,99542.28
2022-08-30T08:14:03.434Z,99548.56
2022-08-30T08:16:35.090Z,99536.78
2022-08-30T08:19:04.912Z,99527.00
2022-08-30T08:21:33.144Z,99537.91
2022-08-30T08:24:01.004Z,99543.50
2022-08-30T08:26:28.967Z,99542.34
2022-08-30T08:28:57.928Z,99533.91
2022-08-30T08:31:33.397Z,99539.62
2022-08-30T08:36:54.392Z,99537.19
2022-08-30T08:39:22.568Z,99538.47
2022-08-30T08:42:27.628Z,99542.31
2022-08-30T08:45:11.516Z,99535.06
2022-08-30T08:47:45.376Z,99541.50
2022-08-30T08:50:20.853Z,99547.59
2022-08-30T08:53:36.055Z,99540.06
2022-08-30T08:56:15.907Z,99544.75
2022-08-30T08:58:47.441Z,99536.06
2022-08-30T09:01:19.528Z,99553.00
2022-08-30T09:03:48.213Z,99550.34
2022-08-30T09:06:34.412Z,99556.59
2022-08-30T09:09:02.196Z,99546.88
2022-08-30T09:11:34.364Z,99554.22
2022-08-30T09:14:02.782Z,99540.69
2022-08-30T09:16:54.983Z,99553.03
2022-08-30T09:19:56.917Z,99554.47
2022-08-30T09:22:54.819Z,99559.75
2022-08-30T09:25:30.710Z,99556.06
2022-08-30T09:28:23.058Z,99556.00
2022-08-30T09:31:01.685Z,99553.47
2022-08-30T09:33:30.400Z,99553.19
2022-08-30T09:36:14.082Z,99555.75
2022-08-30T09:38:42.638Z,99558.47
2022-08-30T09:41:34.759Z,99558.03
2022-08-30T09:44:14.577Z,99560.19
2022-08-30T09:46:51.957Z,99556.94
2022-08-30T09:49:35.838Z,99554.38
2022-08-30T09:52:22.248Z,99560.09
2022-08-30T09:55:04.130Z,99560.25
2022-08-30T09:57:48.280Z,99563.44
2022-08-30T10:00:22.619Z,99553.13
2022-08-30T10:03:06.147Z,99551.19
2022-08-30T10:06:01.720Z,99557.91
2022-08-30T10:08:49.875Z,99554.78
2022-08-30T10:11:40.117Z,99546.91
2022-08-30T10:14:16.099Z,99543.34
2022-08-30T10:17:12.364Z,99542.84
2022-08-30T10:20:08.627Z,99556.94
2022-08-30T10:22:59.658Z,99554.06
2022-08-30T10:25:39.421Z,99557.25
2022-08-30T10:28:17.818Z,99552.59
2022-08-30T10:31:03.106Z,99543.97
2022-08-30T10:33:38.257Z,99530.88
2022-08-30T10:36:11.648Z,99546.91
2022-08-30T10:38:50.597Z,99533.63
2022-08-30T10:41:40.438Z,99552.34
2022-08-30T10:44:17.598Z,99542.84
2022-08-30T10:46:57.723Z,99535.53
2022-08-30T10:49:29.035Z,99548.84
2022-08-30T10:52:14.865Z,99540.81
2022-08-30T10:55:07.229Z,99550.56
2022-08-30T10:57:35.480Z,99551.50
2022-08-30T11:00:11.730Z,99543.69
2022-08-30T11:02:57.338Z,99535.09
2022-08-30T11:08:41.922Z,99539.06
2022-08-30T11:11:17.312Z,99545.88
2022-08-30T11:13:47.059Z,99538.09
2022-08-30T11:16:19.497Z,99532.16
2022-08-30T11:18:57.403Z,99536.19
2022-08-30T11:21:34.118Z,99536.31
2022-08-30T11:24:07.797Z,99531.09
2022-08-30T11:26:51.076Z,99530.66
2022-08-30T11:29:44.918Z,99536.56
2022-08-30T11:32:12.813Z,99528.19
2022-08-30T11:34:47.220Z,99526.84
2022-08-30T11:40:26.619Z,99531.25
2022-08-30T11:42:56.287Z,99534.53
2022-08-30T11:45:25.435Z,99525.28
2022-08-30T11:47:56.218Z,99523.03
2022-08-30T11:51:06.559Z,99533.91
2022-08-30T11:53:50.239Z,99533.78
2022-08-30T11:57:02.400Z,99538.19
2022-08-30T12:00:03.199Z,99528.09
2022-08-30T12:02:51.202Z,99520.84
2022-08-30T12:05:54.139Z,99529.47
2022-08-30T12:08:27.892Z,99521.66
2022-08-30T12:11:20.068Z,99515.09
2022-08-30T12:13:56.354Z,99515.44
2022-08-30T12:16:37.354Z,99516.78
2022-08-30T12:19:21.776Z,99510.22
2022-08-30T12:22:02.138Z,99501.81
2022-08-30T12:24:36.999Z,99503.34
2022-08-30T12:27:25.279Z,99506.94
2022-08-30T12:30:02.322Z,99503.59
2022-08-30T12:32:33.657Z,99502.47
2022-08-30T12:35:04.383Z,99501.25
2022-08-30T12:37:36.677Z,99500.19
2022-08-30T12:40:08.370Z,99501.28
2022-08-30T12:42:41.616Z,99508.72
2022-08-30T12:45:16.219Z,99499.88
2022-08-30T12:48:07.058Z,99489.59
2022-08-30T12:53:39.741Z,99491.63
2022-08-30T12:56:10.959Z,99495.12
2022-08-30T12:58:52.035Z,99494.03
2022-08-30T13:01:36.201Z,99479.81
2022-08-30T13:04:14.757Z,99484.34
2022-08-30T13:07:01.510Z,99479.31
2022-08-30T13:09:47.929Z,99472.09
2022-08-30T13:12:25.905Z,99475.75
2022-08-30T13:15:20.364Z,99476.41
2022-08-30T13:17:48.537Z,99467.06
2022-08-30T13:20:16.988Z,99464.34
2022-08-30T13:23:03.249Z,99469.66
2022-08-30T13:25:33.076Z,99469.56
2022-08-30T13:28:02.867Z,99474.19
2022-08-30T13:30:32.285Z,99480.28
2022-08-30T13:33:03.418Z,99485.19
2022-08-30T13:35:32.858Z,99473.19
2022-08-30T13:38:03.015Z,99467.09
2022-08-30T13:40:31.396Z,99459.87
2022-08-30T13:42:59.618Z,99456.97
2022-08-30T13:45:43.424Z,99459.81
2022-08-30T13:48:14.583Z,99466.87
2022-08-30T13:50:45.479Z,99464.59
2022-08-30T13:53:14.265Z,99470.13
2022-08-30T13:55:43.063Z,99459.69
2022-08-30T13:58:13.368Z,99467.66
2022-08-30T14:00:42.316Z,99447.03
2022-08-30T14:03:16.533Z,99441.91
2022-08-30T14:05:50.535Z,99444.81
2022-08-30T14:08:45.335Z,99449.38
2022-08-30T14:11:18.735Z,99459.50
2022-08-30T14:16:39.736Z,99454.53
2022-08-30T14:19:12.579Z,99446.50
2022-08-30T14:21:41.246Z,99458.22
2022-08-30T14:24:12.066Z,99452.06
2022-08-30T14:26:51.689Z,99461.31
2022-08-30T14:29:26.385Z,99463.44
2022-08-30T14:31:58.567Z,99464.69
2022-08-30T14:34:28.823Z,99462.47
2022-08-30T14:36:56.948Z,99467.56
2022-08-30T14:39:26.380Z,99463.72
2022-08-30T14:41:55.768Z,99476.00
2022-08-30T14:44:25.721Z,99469.84
2022-08-30T14:46:54.819Z,99461.81
2022-08-30T14:49:25.507Z,99466.00
2022-08-30T14:51:55.119Z,99456.12
2022-08-30T14:54:26.418Z,99452.37
2022-08-30T14:56:55.575Z,99449.88
2022-08-30T14:59:25.176Z,99458.16
2022-08-30T15:01:53.958Z,99465.91
2022-08-30T15:04:22.802Z,99457.53
2022-08-30T15:06:51.453Z,99459.41
2022-08-30T15:09:24.619Z,99458.09
2022-08-30T15:11:56.778Z,99463.12
2022-08-30T15:14:28.102Z,99470.09
2022-08-30T15:16:58.679Z,99468.37
2022-08-30T15:19:27.180Z,99468.25
2022-08-30T15:21:58.485Z,99460.69
2022-08-30T15:24:29.762Z,99459.84
2022-08-30T15:27:00.459Z,99446.81
2022-08-30T15:29:31.735Z,99448.78
2022-08-30T15:32:01.960Z,99454.09
2022-08-30T15:34:31.968Z,99455.28
2022-08-30T15:37:01.037Z,99451.16
2022-08-30T15:39:29.647Z,99455.38
2022-08-30T15:42:01.256Z,99453.94
2022-08-30T15:44:34.477Z,99452.25
2022-08-30T15:47:03.597Z,99460.16
2022-08-30T15:49:31.767Z,99457.41
2022-08-30T15:52:05.277Z,99457.66
2022-08-30T15:54:36.461Z,99456.84
2022-08-30T15:57:05.907Z,99462.44
2022-08-30T15:59:34.108Z,99461.97
2022-08-30T16:02:02.731Z,99460.59
2022-08-30T16:04:31.900Z,99470.59
2022-08-30T16:07:00.139Z,99463.09
2022-08-30T16:09:29.935Z,99466.97
2022-08-30T16:12:02.901Z,99462.63
2022-08-30T16:14:33.318Z,99462.47
2022-08-30T16:17:02.439Z,99452.00
2022-08-30T16:19:33.439Z,99455.59
2022-08-30T16:22:02.261Z,99460.09
2022-08-30T16:24:30.454Z,99460.41
2022-08-30T16:26:58.657Z,99450.22
2022-08-30T16:29:27.140Z,99449.97
2022-08-30T16:31:57.792Z,99448.53
2022-08-30T16:34:26.559Z,99450.19
2022-08-30T16:36:55.133Z,99450.22
2022-08-30T16:39:23.340Z,99450.50
2022-08-30T16:41:52.631Z,99454.72
2022-08-30T16:44:20.743Z,99448.34
2022-08-30T16:46:55.298Z,99443.84
2022-08-30T16:49:25.548Z,99453.13
2022-08-30T16:51:54.312Z,99452.53
2022-08-30T16:54:25.080Z,99452.53
2022-08-30T16:56:53.556Z,99457.47
2022-08-30T16:59:21.843Z,99453.25
2022-08-30T17:01:50.087Z,99445.25
2022-08-30T17:07:06.754Z,99454.72
2022-08-30T17:09:42.236Z,99456.88
2022-08-30T17:12:10.293Z,99449.03
2022-08-30T17:14:38.375Z,99452.59
2022-08-30T17:17:07.466Z,99440.22
2022-08-30T17:19:40.966Z,99447.41
2022-08-30T17:22:10.738Z,99459.00
2022-08-30T17:24:40.258Z,99448.00
2022-08-30T17:27:08.550Z,99457.91
2022-08-30T17:29:37.106Z,99455.34
2022-08-30T17:32:06.868Z,99456.84
2022-08-30T17:34:34.962Z,99460.81
2022-08-30T17:37:03.642Z,99452.06
2022-08-30T17:39:31.933Z,99451.34
2022-08-30T17:42:00.844Z,99438.50
2022-08-30T17:44:31.932Z,99457.72
2022-08-30T17:47:00.495Z,99449.34
2022-08-30T17:49:31.019Z,99433.41
2022-08-30T17:54:45.948Z,99442.28
2022-08-30T17:57:13.936Z,99429.72
2022-08-30T17:59:43.547Z,99432.66
2022-08-30T18:02:13.718Z,99424.56
2022-08-30T18:04:42.638Z,99424.13
2022-08-30T18:07:12.915Z,99422.53
2022-08-30T18:09:41.726Z,99418.53
2022-08-30T18:12:12.348Z,99411.34
2022-08-30T18:14:42.239Z,99416.56
2022-08-30T18:17:10.706Z,99416.16
2022-08-30T18:19:45.851Z,99415.16
2022-08-30T18:22:16.660Z,99401.69
2022-08-30T18:24:45.967Z,99406.19
2022-08-30T18:27:15.858Z,99404.06
2022-08-30T18:29:43.971Z,99396.28
2022-08-30T18:32:12.875Z,99394.88
2022-08-30T18:34:43.126Z,99401.28
2022-08-30T18:37:12.418Z,99408.22
2022-08-30T18:39:41.971Z,99415.34
2022-08-30T18:42:10.608Z,99402.59
2022-08-30T18:44:40.198Z,99403.78
2022-08-30T18:47:12.048Z,99412.47
2022-08-30T18:49:40.280Z,99405.50
2022-08-30T18:52:10.199Z,99412.06
2022-08-30T18:54:49.748Z,99410.03
2022-08-30T18:57:22.075Z,99412.28
2022-08-30T18:59:51.228Z,99404.25
2022-08-30T19:02:19.654Z,99390.63
2022-08-30T19:04:49.353Z,99398.28
2022-08-30T19:07:19.849Z,99395.97
2022-08-30T19:09:49.239Z,99392.47
2022-08-30T19:12:19.758Z,99389.81
2022-08-30T19:14:49.199Z,99388.16
2022-08-30T19:17:17.459Z,99383.25
2022-08-30T19:19:49.340Z,99384.91
2022-08-30T19:22:22.610Z,99389.47
2022-08-30T19:24:54.986Z,99377.47
2022-08-30T19:30:21.574Z,99378.78
2022-08-30T19:32:52.219Z,99375.84
2022-08-30T19:35:21.676Z,99381.22
2022-08-30T19:37:49.921Z,99387.19
2022-08-30T19:40:20.214Z,99386.13
2022-08-30T19:42:52.107Z,99382.59
2022-08-30T19:45:21.974Z,99386.91
2022-08-30T19:47:53.556Z,99379.34
2022-08-30T19:50:22.529Z,99386.47
2022-08-30T19:55:40.658Z,99385.13
2022-08-30T19:58:10.289Z,99382.69
2022-08-30T20:00:39.246Z,99359.81
2022-08-30T20:03:14.149Z,99388.28
2022-08-30T20:05:44.097Z,99384.75
2022-08-30T20:08:12.314Z,99388.50
2022-08-30T20:10:44.074Z,99380.75
2022-08-30T20:13:12.165Z,99389.63
2022-08-30T20:15:40.815Z,99381.94
2022-08-30T20:18:14.203Z,99378.00
2022-08-30T20:20:49.380Z,99366.97
2022-08-30T20:23:22.631Z,99362.72
2022-08-30T20:24:23.934Z,99454.16
2022-08-30T20:25:53.647Z,99383.03
2022-08-30T20:28:22.628Z,99381.63
2022-08-30T20:30:50.764Z,99381.44
2022-08-30T20:33:21.557Z,99380.06
2022-08-30T20:35:50.313Z,99384.03
2022-08-30T20:38:24.199Z,99376.50
2022-08-30T20:40:56.395Z,99373.25
2022-08-30T20:43:27.776Z,99369.47
2022-08-30T20:45:56.798Z,99369.41
2022-08-30T20:48:29.148Z,99297.72
2022-08-30T20:50:58.108Z,99336.91
2022-08-30T20:53:26.374Z,99364.62
2022-08-30T20:55:54.606Z,99355.50
2022-08-30T20:58:23.267Z,99354.97
2022-08-30T21:00:55.112Z,99354.13
2022-08-30T21:03:25.910Z,99356.16
2022-08-30T21:05:56.194Z,99350.31
2022-08-30T21:08:25.547Z,99348.75
2022-08-30T21:10:54.936Z,99353.22
2022-08-30T21:13:23.346Z,99342.84
2022-08-30T21:16:00.417Z,99345.25
2022-08-30T21:18:33.420Z,99349.28
2022-08-30T21:21:14.261Z,99342.50
2022-08-30T21:23:43.392Z,99354.69
2022-08-30T21:26:12.134Z,99342.81
2022-08-30T21:28:40.635Z,99331.37
2022-08-30T21:31:11.979Z,99341.50
2022-08-30T21:33:41.450Z,99337.31
2022-08-30T21:36:30.307Z,99331.94
2022-08-30T21:39:00.917Z,99327.78
2022-08-30T21:41:30.905Z,99334.22
2022-08-30T21:44:05.739Z,99330.28
2022-08-30T21:46:35.477Z,99337.50
2022-08-30T21:49:07.238Z,99325.75
2022-08-30T21:51:39.599Z,99324.88
2022-08-30T21:54:09.983Z,99326.47
2022-08-30T21:56:40.884Z,99331.13
2022-08-30T21:59:10.710Z,99328.81
2022-08-30T22:01:40.703Z,99325.72
2022-08-30T22:04:11.126Z,99322.53
2022-08-30T22:06:43.821Z,99317.81
2022-08-30T22:09:16.108Z,99313.66
2022-08-30T22:11:44.981Z,99314.63
2022-08-30T22:14:14.811Z,99308.53
2022-08-30T22:16:45.056Z,99318.22
2022-08-30T22:19:13.773Z,99304.50
2022-08-30T22:21:42.998Z,99309.50
2022-08-30T22:24:12.345Z,99317.31
2022-08-30T22:26:41.231Z,99309.59
2022-08-30T22:29:09.891Z,99310.44
2022-08-30T22:31:41.594Z,99314.09
2022-08-30T22:34:10.781Z,99311.28
2022-08-30T22:36:40.956Z,99316.81
2022-08-30T22:39:12.380Z,99314.84
2022-08-30T22:41:41.781Z,99317.88
2022-08-30T22:44:09.709Z,99318.31
2022-08-30T22:46:39.063Z,99315.97
2022-08-30T22:49:09.722Z,99317.81
2022-08-30T22:51:41.882Z,99317.59
2022-08-30T22:57:03.634Z,99313.19
2022-08-30T22:59:32.816Z,99316.41
2022-08-30T23:02:01.274Z,99316.63
2022-08-30T23:04:29.916Z,99314.75
2022-08-30T23:06:57.914Z,99306.75
2022-08-30T23:09:25.899Z,99321.97
2022-08-30T23:11:54.254Z,99325.38
2022-08-30T23:14:22.722Z,99313.44
2022-08-30T23:16:53.414Z,99320.53
2022-08-30T23:19:24.010Z,99329.34
2022-08-30T23:21:51.941Z,99316.59
2022-08-30T23:24:38.123Z,99311.94
2022-08-30T23:27:24.900Z,99316.75
2022-08-30T23:30:11.162Z,99318.06
2022-08-30T23:32:57.961Z,99312.47
2022-08-30T23:35:44.952Z,99310.81
2022-08-30T23:38:31.927Z,99311.59
2022-08-30T23:41:18.291Z,99309.00
2022-08-30T23:44:05.206Z,99297.50
2022-08-30T23:46:51.391Z,99304.16
2022-08-30T23:49:38.232Z,99309.50
2022-08-30T23:52:25.234Z,99307.16
2022-08-30T23:55:12.207Z,99314.94
2022-08-30T23:57:58.436Z,99329.09
